createdAt,value
2023-04-10T00:00:58.188Z,7.50
2023-04-10T00:06:14.215Z,6.65
2023-04-10T00:11:30.299Z,8.52
2023-04-10T00:16:46.125Z,7.63
2023-04-10T00:22:02.120Z,7.60
2023-04-10T00:27:18.212Z,7.68
2023-04-10T00:32:34.110Z,6.68
2023-04-10T00:37:51.236Z,6.43
2023-04-10T00:43:06.977Z,6.03
2023-04-10T00:48:23.178Z,6.70
2023-04-10T00:53:38.821Z,6.43
2023-04-10T00:58:54.455Z,6.60
2023-04-10T01:04:11.921Z,7.22
2023-04-10T01:10:08.367Z,6.85
2023-04-10T01:15:27.758Z,7.55
2023-04-10T01:20:43.933Z,7.38
2023-04-10T01:26:01.468Z,6.20
2023-04-10T01:31:50.627Z,6.18
2023-04-10T01:37:12.849Z,6.70
2023-04-10T01:42:34.385Z,5.43
2023-04-10T01:47:51.636Z,6.30
2023-04-10T01:53:08.305Z,6.38
2023-04-10T01:58:25.212Z,7.68
2023-04-10T02:03:41.357Z,6.63
2023-04-10T02:09:12.408Z,8.20
2023-04-10T02:14:31.783Z,7.40
2023-04-10T02:19:49.249Z,8.98
2023-04-10T02:25:06.827Z,9.38
2023-04-10T02:30:22.531Z,8.85
2023-04-10T02:35:38.630Z,8.55
2023-04-10T02:40:54.572Z,9.77
2023-04-10T02:46:10.517Z,9.30
2023-04-10T02:51:26.643Z,10.13
2023-04-10T02:56:42.378Z,9.80
2023-04-10T03:01:58.379Z,11.00
2023-04-10T03:07:14.305Z,8.60
2023-04-10T03:12:30.258Z,10.35
2023-04-10T03:17:46.530Z,11.18
2023-04-10T03:23:03.591Z,11.15
2023-04-10T03:28:19.826Z,11.02
2023-04-10T03:33:35.707Z,9.93
2023-04-10T03:38:53.029Z,9.57
2023-04-10T03:44:09.092Z,9.07
2023-04-10T03:49:24.520Z,9.70
2023-04-10T03:54:40.353Z,10.13
2023-04-10T03:59:56.748Z,9.57
2023-04-10T04:05:13.050Z,11.32
2023-04-10T04:10:28.879Z,9.50
2023-04-10T04:15:44.847Z,9.55
2023-04-10T04:21:00.514Z,9.23
2023-04-10T04:26:16.491Z,8.57
2023-04-10T04:31:32.938Z,8.70
2023-04-10T04:36:48.816Z,8.57
2023-04-10T04:42:04.764Z,7.80
2023-04-10T04:47:20.931Z,8.18
2023-04-10T04:52:36.717Z,8.13
2023-04-10T04:57:53.337Z,8.32
2023-04-10T05:03:09.532Z,8.30
2023-04-10T05:08:25.515Z,9.00
2023-04-10T05:13:41.663Z,8.23
2023-04-10T05:18:57.642Z,8.50
2023-04-10T05:24:13.266Z,9.10
2023-04-10T05:29:29.061Z,7.80
2023-04-10T05:34:44.970Z,7.80
2023-04-10T05:40:00.984Z,8.10
2023-04-10T05:45:18.854Z,7.97
2023-04-10T05:50:36.762Z,8.80
2023-04-10T05:55:52.845Z,8.23
2023-04-10T06:01:08.231Z,7.68
2023-04-10T06:06:26.024Z,8.65
2023-04-10T06:11:41.644Z,9.00
2023-04-10T06:16:57.207Z,8.70
2023-04-10T06:22:12.699Z,8.07
2023-04-10T06:27:28.925Z,9.20
2023-04-10T06:32:44.840Z,8.68
2023-04-10T06:38:00.521Z,8.63
2023-04-10T06:43:16.223Z,8.85
2023-04-10T06:48:32.978Z,8.20
2023-04-10T06:53:48.915Z,8.25
2023-04-10T06:59:04.192Z,7.75
2023-04-10T07:04:20.046Z,6.68
2023-04-10T07:09:35.522Z,8.65
2023-04-10T07:14:51.555Z,9.10
2023-04-10T07:20:07.907Z,7.28
2023-04-10T07:25:23.672Z,7.40
2023-04-10T07:30:39.631Z,7.40
2023-04-10T07:35:55.167Z,7.85
2023-04-10T07:41:12.414Z,7.65
2023-04-10T07:46:28.208Z,7.18
2023-04-10T07:51:43.801Z,7.10
2023-04-10T07:56:59.932Z,7.18
2023-04-10T08:02:15.592Z,6.47
2023-04-10T08:07:31.558Z,6.22
2023-04-10T08:12:47.190Z,5.40
2023-04-10T08:18:03.287Z,4.95
2023-04-10T08:23:20.930Z,6.28
2023-04-10T08:28:37.096Z,6.43
2023-04-10T08:33:53.319Z,7.18
2023-04-10T08:39:09.361Z,4.93
2023-04-10T08:44:24.907Z,3.78
2023-04-10T08:50:02.123Z,4.25
2023-04-10T08:55:19.959Z,3.95
2023-04-10T09:00:38.784Z,3.53
2023-04-10T09:05:54.983Z,4.05
2023-04-10T09:11:13.424Z,4.47
2023-04-10T09:16:30.699Z,3.88
2023-04-10T09:21:51.030Z,3.80
2023-04-10T09:27:07.405Z,4.20
2023-04-10T09:32:45.106Z,4.32
2023-04-10T09:38:01.179Z,4.20
2023-04-10T09:43:25.950Z,3.65
2023-04-10T09:48:57.045Z,3.75
2023-04-10T09:54:12.659Z,3.60
2023-04-10T09:59:28.272Z,3.35
2023-04-10T10:04:47.613Z,3.25
2023-04-10T10:10:04.097Z,3.33
2023-04-10T10:15:41.733Z,2.83
2023-04-10T10:20:58.662Z,2.80
2023-04-10T10:26:15.843Z,2.88
2023-04-10T10:31:37.686Z,2.67
2023-04-10T10:36:53.587Z,2.97
2023-04-10T10:42:30.443Z,2.53
2023-04-10T10:47:50.634Z,3.03
2023-04-10T10:53:06.549Z,2.93
2023-04-10T10:58:56.562Z,2.88
2023-04-10T11:04:45.129Z,3.03
2023-04-10T11:10:01.173Z,2.17
2023-04-10T11:15:23.965Z,2.80
2023-04-10T11:21:19.510Z,2.50
2023-04-10T11:26:39.612Z,2.80
2023-04-10T11:32:00.990Z,2.17
2023-04-10T11:37:24.405Z,2.53
2023-04-10T11:42:40.327Z,2.70
2023-04-10T11:47:56.381Z,2.40
2023-04-10T11:53:22.781Z,2.17
2023-04-10T11:58:38.630Z,1.98
2023-04-10T12:03:54.582Z,2.30
2023-04-10T12:09:16.130Z,2.25
2023-04-10T12:14:41.725Z,1.75
2023-04-10T12:19:57.843Z,1.60
2023-04-10T12:25:13.785Z,2.42
2023-04-10T12:30:29.747Z,1.50
2023-04-10T12:35:45.824Z,2.30
2023-04-10T12:41:02.237Z,2.17
2023-04-10T12:46:28.796Z,1.40
2023-04-10T12:51:46.474Z,1.90
2023-04-10T12:57:04.308Z,2.60
2023-04-10T13:02:21.542Z,1.50
2023-04-10T13:07:38.481Z,1.85
2023-04-10T13:12:54.157Z,1.98
2023-04-10T13:18:12.917Z,1.90
2023-04-10T13:23:28.989Z,1.45
2023-04-10T13:28:44.974Z,1.73
2023-04-10T13:34:00.911Z,1.52
2023-04-10T13:39:18.959Z,1.92
2023-04-10T13:44:34.787Z,2.30
2023-04-10T13:49:50.223Z,2.00
2023-04-10T13:55:06.953Z,2.08
2023-04-10T14:00:22.639Z,1.85
2023-04-10T14:05:41.636Z,1.92
2023-04-10T14:10:57.720Z,1.63
2023-04-10T14:16:14.396Z,1.63
2023-04-10T14:21:30.190Z,2.50
2023-04-10T14:26:46.044Z,1.98
2023-04-10T14:32:01.949Z,1.80
2023-04-10T14:37:19.280Z,1.98
2023-04-10T14:42:35.264Z,1.65
2023-04-10T14:47:51.266Z,2.03
2023-04-10T14:53:09.940Z,1.77
2023-04-10T14:58:26.171Z,1.92
2023-04-10T15:03:41.859Z,1.92
2023-04-10T15:08:58.314Z,1.70
2023-04-10T15:14:14.305Z,1.58
2023-04-10T15:19:30.201Z,1.70
2023-04-10T15:24:50.647Z,1.20
2023-04-10T15:35:25.052Z,1.70
2023-04-10T15:40:40.843Z,1.27
2023-04-10T15:46:00.407Z,1.75
2023-04-10T15:51:16.189Z,1.58
2023-04-10T15:56:33.478Z,2.50
2023-04-10T16:01:49.577Z,2.75
2023-04-10T16:07:05.861Z,1.65
2023-04-10T16:12:21.680Z,2.03
2023-04-10T16:17:37.502Z,1.92
2023-04-10T16:22:53.996Z,1.88
2023-04-10T16:28:09.526Z,1.60
2023-04-10T16:33:26.474Z,1.33
2023-04-10T16:38:42.399Z,1.45
2023-04-10T16:43:58.337Z,1.58
2023-04-10T16:49:14.421Z,1.27
2023-04-10T16:54:30.525Z,1.63
2023-04-10T16:59:46.487Z,1.48
2023-04-10T17:05:02.284Z,2.00
2023-04-10T17:10:19.937Z,2.13
2023-04-10T17:15:36.350Z,1.83
2023-04-10T17:20:52.361Z,1.80
2023-04-10T17:26:16.343Z,2.17
2023-04-10T17:31:32.573Z,2.70
2023-04-10T17:36:49.893Z,2.00
2023-04-10T17:42:05.942Z,2.08
2023-04-10T17:47:22.124Z,2.03
2023-04-10T17:52:37.966Z,2.40
2023-04-10T17:57:53.986Z,2.25
2023-04-10T18:03:10.644Z,2.67
2023-04-10T18:08:26.867Z,2.28
2023-04-10T18:13:42.357Z,2.55
2023-04-10T18:18:58.088Z,3.42
2023-04-10T18:24:16.678Z,3.75
2023-04-10T18:29:32.388Z,4.15
2023-04-10T18:34:47.852Z,4.25
2023-04-10T18:40:13.533Z,3.45
2023-04-10T18:45:34.402Z,4.05
2023-04-10T18:50:54.256Z,4.13
2023-04-10T18:56:10.186Z,4.30
2023-04-10T19:01:26.159Z,4.07
2023-04-10T19:06:44.025Z,3.88
2023-04-10T19:12:00.016Z,5.13
2023-04-10T19:17:17.493Z,3.97
2023-04-10T19:22:35.007Z,5.30
2023-04-10T19:27:50.960Z,5.72
2023-04-10T19:33:06.908Z,6.63
2023-04-10T19:38:22.649Z,5.88
2023-04-10T19:43:38.522Z,5.78
2023-04-10T19:48:54.974Z,5.63
2023-04-10T19:54:11.140Z,5.93
2023-04-10T19:59:26.895Z,5.97
2023-04-10T20:04:42.875Z,6.82
2023-04-10T20:10:02.796Z,5.55
2023-04-10T20:15:20.631Z,4.90
2023-04-10T20:20:36.194Z,4.95
2023-04-10T20:25:52.188Z,4.68
2023-04-10T20:31:08.785Z,4.70
2023-04-10T20:36:24.846Z,5.00
2023-04-10T20:41:40.641Z,5.55
2023-04-10T20:46:56.568Z,5.50
2023-04-10T20:52:12.624Z,5.82
2023-04-10T20:57:28.423Z,6.55
2023-04-10T21:02:44.491Z,6.70
2023-04-10T21:08:00.276Z,6.72
2023-04-10T21:13:16.534Z,5.60
2023-04-10T21:18:32.179Z,5.97
2023-04-10T21:23:47.556Z,6.32
2023-04-10T21:29:03.077Z,6.70
2023-04-10T21:34:18.914Z,5.05
2023-04-10T21:39:34.873Z,5.97
2023-04-10T21:44:50.731Z,6.35
2023-04-10T21:50:07.399Z,5.13
2023-04-10T21:55:23.220Z,5.10
2023-04-10T22:00:38.993Z,5.75
2023-04-10T22:05:54.840Z,4.90
2023-04-10T22:11:10.808Z,5.35
2023-04-10T22:16:26.538Z,5.55
2023-04-10T22:21:42.589Z,5.55
2023-04-10T22:26:58.682Z,5.20
2023-04-10T22:32:14.594Z,5.53
2023-04-10T22:37:30.456Z,5.25
2023-04-10T22:42:48.594Z,4.85
2023-04-10T22:48:04.519Z,5.15
2023-04-10T22:53:20.522Z,5.45
2023-04-10T22:58:40.910Z,5.05
2023-04-10T23:03:56.973Z,5.38
2023-04-10T23:09:12.946Z,4.97
2023-04-10T23:14:28.849Z,4.20
2023-04-10T23:19:44.828Z,4.75
2023-04-10T23:25:00.690Z,7.30
2023-04-10T23:30:16.677Z,5.78
2023-04-10T23:35:32.552Z,5.75
2023-04-10T23:40:48.517Z,5.75
2023-04-10T23:46:04.395Z,5.28
2023-04-10T23:51:20.572Z,5.32
2023-04-10T23:56:36.482Z,5.95
